sensor_id;sensor_type;location;lat;lon;timestamp;P1;durP1;ratioP1;P2;durP2;ratioP2
43620;SDS011;29213;50.770;7.298;2023-02-01T00:02:02;11.45;;;6.35;;
43620;SDS011;29213;50.770;7.298;2023-02-01T00:04:28;9.88;;;6.00;;
43620;SDS011;29213;50.770;7.298;2023-02-01T00:06:54;11.60;;;5.95;;
43620;SDS011;29213;50.770;7.298;2023-02-01T00:09:20;8.82;;;5.60;;
43620;SDS011;29213;50.770;7.298;2023-02-01T00:11:47;9.43;;;5.32;;
43620;SDS011;29213;50.770;7.298;2023-02-01T00:14:18;9.68;;;5.63;;
43620;SDS011;29213;50.770;7.298;2023-02-01T00:16:44;10.00;;;5.65;;
43620;SDS011;29213;50.770;7.298;2023-02-01T00:19:11;9.90;;;5.97;;
43620;SDS011;29213;50.770;7.298;2023-02-01T00:21:39;9.77;;;5.20;;
43620;SDS011;29213;50.770;7.298;2023-02-01T00:24:05;12.60;;;5.80;;
43620;SDS011;29213;50.770;7.298;2023-02-01T00:28:58;11.15;;;5.63;;
43620;SDS011;29213;50.770;7.298;2023-02-01T00:31:24;9.48;;;5.70;;
43620;SDS011;29213;50.770;7.298;2023-02-01T00:33:50;9.30;;;5.25;;
43620;SDS011;29213;50.770;7.298;2023-02-01T00:36:16;11.77;;;5.00;;
43620;SDS011;29213;50.770;7.298;2023-02-01T00:38:43;13.23;;;5.40;;
43620;SDS011;29213;50.770;7.298;2023-02-01T00:41:13;11.13;;;5.65;;
43620;SDS011;29213;50.770;7.298;2023-02-01T00:43:41;9.73;;;5.18;;
43620;SDS011;29213;50.770;7.298;2023-02-01T00:46:07;11.90;;;5.35;;
43620;SDS011;29213;50.770;7.298;2023-02-01T00:48:33;14.88;;;5.90;;
43620;SDS011;29213;50.770;7.298;2023-02-01T00:51:03;10.02;;;5.28;;
43620;SDS011;29213;50.770;7.298;2023-02-01T00:53:31;12.50;;;5.32;;
43620;SDS011;29213;50.770;7.298;2023-02-01T00:55:57;10.88;;;5.28;;
43620;SDS011;29213;50.770;7.298;2023-02-01T00:58:24;11.27;;;5.50;;
43620;SDS011;29213;50.770;7.298;2023-02-01T01:03:39;14.52;;;5.25;;
43620;SDS011;29213;50.770;7.298;2023-02-01T01:06:15;12.68;;;5.00;;
43620;SDS011;29213;50.770;7.298;2023-02-01T01:08:43;13.02;;;5.05;;
43620;SDS011;29213;50.770;7.298;2023-02-01T01:11:10;9.00;;;4.30;;
43620;SDS011;29213;50.770;7.298;2023-02-01T01:13:40;16.00;;;4.68;;
43620;SDS011;29213;50.770;7.298;2023-02-01T01:16:06;11.50;;;4.68;;
43620;SDS011;29213;50.770;7.298;2023-02-01T01:18:32;13.23;;;4.65;;
43620;SDS011;29213;50.770;7.298;2023-02-01T01:20:59;13.68;;;4.80;;
43620;SDS011;29213;50.770;7.298;2023-02-01T01:23:25;18.48;;;4.18;;
43620;SDS011;29213;50.770;7.298;2023-02-01T01:25:52;10.90;;;4.18;;
43620;SDS011;29213;50.770;7.298;2023-02-01T01:28:17;9.70;;;4.13;;
43620;SDS011;29213;50.770;7.298;2023-02-01T01:30:42;10.65;;;3.72;;
43620;SDS011;29213;50.770;7.298;2023-02-01T01:33:09;12.40;;;3.60;;
43620;SDS011;29213;50.770;7.298;2023-02-01T01:35:34;12.80;;;4.07;;
43620;SDS011;29213;50.770;7.298;2023-02-01T01:38:00;12.43;;;3.70;;
43620;SDS011;29213;50.770;7.298;2023-02-01T01:40:26;12.05;;;3.72;;
43620;SDS011;29213;50.770;7.298;2023-02-01T01:42:53;9.70;;;3.13;;
43620;SDS011;29213;50.770;7.298;2023-02-01T01:45:27;12.32;;;3.85;;
43620;SDS011;29213;50.770;7.298;2023-02-01T01:47:58;13.75;;;3.70;;
43620;SDS011;29213;50.770;7.298;2023-02-01T01:50:27;15.15;;;3.30;;
43620;SDS011;29213;50.770;7.298;2023-02-01T01:52:57;9.82;;;3.40;;
43620;SDS011;29213;50.770;7.298;2023-02-01T01:55:26;10.00;;;3.30;;
43620;SDS011;29213;50.770;7.298;2023-02-01T02:00:27;10.75;;;3.40;;
43620;SDS011;29213;50.770;7.298;2023-02-01T02:02:54;10.93;;;3.35;;
43620;SDS011;29213;50.770;7.298;2023-02-01T02:05:28;9.63;;;3.60;;
43620;SDS011;29213;50.770;7.298;2023-02-01T02:07:57;9.75;;;3.38;;
43620;SDS011;29213;50.770;7.298;2023-02-01T02:10:24;10.85;;;3.33;;
43620;SDS011;29213;50.770;7.298;2023-02-01T02:13:09;8.85;;;3.22;;
43620;SDS011;29213;50.770;7.298;2023-02-01T02:15:36;10.23;;;3.17;;
43620;SDS011;29213;50.770;7.298;2023-02-01T02:18:29;9.43;;;3.17;;
43620;SDS011;29213;50.770;7.298;2023-02-01T02:21:41;13.15;;;3.70;;
43620;SDS011;29213;50.770;7.298;2023-02-01T02:24:29;12.30;;;3.65;;
43620;SDS011;29213;50.770;7.298;2023-02-01T02:27:19;12.05;;;3.35;;
43620;SDS011;29213;50.770;7.298;2023-02-01T02:43:43;11.57;;;2.92;;
43620;SDS011;29213;50.770;7.298;2023-02-01T02:46:41;12.15;;;3.53;;
43620;SDS011;29213;50.770;7.298;2023-02-01T02:49:36;10.55;;;3.55;;
43620;SDS011;29213;50.770;7.298;2023-02-01T02:52:29;10.65;;;3.83;;
43620;SDS011;29213;50.770;7.298;2023-02-01T02:55:23;10.05;;;3.55;;
43620;SDS011;29213;50.770;7.298;2023-02-01T02:57:52;11.38;;;3.40;;
43620;SDS011;29213;50.770;7.298;2023-02-01T03:00:36;10.70;;;3.38;;
43620;SDS011;29213;50.770;7.298;2023-02-01T03:03:21;10.05;;;3.97;;
43620;SDS011;29213;50.770;7.298;2023-02-01T03:06:08;11.32;;;3.67;;
43620;SDS011;29213;50.770;7.298;2023-02-01T03:08:40;13.60;;;4.40;;
43620;SDS011;29213;50.770;7.298;2023-02-01T03:11:10;9.93;;;3.90;;
43620;SDS011;29213;50.770;7.298;2023-02-01T03:16:15;12.50;;;4.03;;
43620;SDS011;29213;50.770;7.298;2023-02-01T03:18:58;10.13;;;3.92;;
43620;SDS011;29213;50.770;7.298;2023-02-01T03:21:43;12.00;;;3.83;;
43620;SDS011;29213;50.770;7.298;2023-02-01T03:27:13;12.02;;;4.10;;
43620;SDS011;29213;50.770;7.298;2023-02-01T03:32:43;11.00;;;3.88;;
43620;SDS011;29213;50.770;7.298;2023-02-01T03:35:36;12.68;;;4.22;;
43620;SDS011;29213;50.770;7.298;2023-02-01T03:38:16;10.55;;;3.60;;
43620;SDS011;29213;50.770;7.298;2023-02-01T03:40:46;12.15;;;4.30;;
43620;SDS011;29213;50.770;7.298;2023-02-01T03:43:17;13.07;;;3.80;;
43620;SDS011;29213;50.770;7.298;2023-02-01T03:45:46;10.40;;;3.58;;
43620;SDS011;29213;50.770;7.298;2023-02-01T03:48:18;12.27;;;3.75;;
43620;SDS011;29213;50.770;7.298;2023-02-01T03:50:49;15.73;;;4.45;;
43620;SDS011;29213;50.770;7.298;2023-02-01T03:53:20;12.25;;;4.03;;
43620;SDS011;29213;50.770;7.298;2023-02-01T03:55:48;10.25;;;3.40;;
43620;SDS011;29213;50.770;7.298;2023-02-01T03:58:18;10.23;;;3.70;;
43620;SDS011;29213;50.770;7.298;2023-02-01T04:00:58;12.27;;;3.75;;
43620;SDS011;29213;50.770;7.298;2023-02-01T04:03:26;11.35;;;3.65;;
43620;SDS011;29213;50.770;7.298;2023-02-01T04:05:52;13.07;;;4.10;;
43620;SDS011;29213;50.770;7.298;2023-02-01T04:08:19;11.10;;;4.03;;
43620;SDS011;29213;50.770;7.298;2023-02-01T04:10:45;12.68;;;4.13;;
43620;SDS011;29213;50.770;7.298;2023-02-01T04:13:11;13.50;;;4.32;;
43620;SDS011;29213;50.770;7.298;2023-02-01T04:15:36;14.05;;;4.35;;
43620;SDS011;29213;50.770;7.298;2023-02-01T04:18:02;10.98;;;3.38;;
43620;SDS011;29213;50.770;7.298;2023-02-01T04:20:28;12.70;;;4.15;;
43620;SDS011;29213;50.770;7.298;2023-02-01T04:22:53;10.30;;;4.40;;
43620;SDS011;29213;50.770;7.298;2023-02-01T04:25:19;12.07;;;4.40;;
43620;SDS011;29213;50.770;7.298;2023-02-01T04:27:44;12.35;;;4.13;;
43620;SDS011;29213;50.770;7.298;2023-02-01T04:30:10;16.17;;;4.35;;
43620;SDS011;29213;50.770;7.298;2023-02-01T04:32:36;12.45;;;3.65;;
43620;SDS011;29213;50.770;7.298;2023-02-01T04:35:02;18.17;;;4.70;;
43620;SDS011;29213;50.770;7.298;2023-02-01T04:37:28;13.23;;;4.32;;
43620;SDS011;29213;50.770;7.298;2023-02-01T04:39:54;13.75;;;4.25;;
43620;SDS011;29213;50.770;7.298;2023-02-01T04:42:19;12.25;;;3.97;;
43620;SDS011;29213;50.770;7.298;2023-02-01T04:44:45;12.10;;;4.00;;
43620;SDS011;29213;50.770;7.298;2023-02-01T04:47:10;10.52;;;4.10;;
43620;SDS011;29213;50.770;7.298;2023-02-01T04:49:36;10.40;;;3.88;;
43620;SDS011;29213;50.770;7.298;2023-02-01T04:52:01;12.45;;;4.63;;
43620;SDS011;29213;50.770;7.298;2023-02-01T04:54:26;13.45;;;4.45;;
43620;SDS011;29213;50.770;7.298;2023-02-01T04:56:52;14.50;;;4.95;;
43620;SDS011;29213;50.770;7.298;2023-02-01T04:59:17;15.77;;;4.38;;
43620;SDS011;29213;50.770;7.298;2023-02-01T05:01:43;18.65;;;5.32;;
43620;SDS011;29213;50.770;7.298;2023-02-01T05:04:08;12.38;;;4.25;;
43620;SDS011;29213;50.770;7.298;2023-02-01T05:06:34;14.73;;;4.30;;
43620;SDS011;29213;50.770;7.298;2023-02-01T05:08:59;16.27;;;4.50;;
43620;SDS011;29213;50.770;7.298;2023-02-01T05:11:24;13.48;;;4.32;;
43620;SDS011;29213;50.770;7.298;2023-02-01T05:14:08;14.23;;;4.10;;
43620;SDS011;29213;50.770;7.298;2023-02-01T05:16:34;16.45;;;4.78;;
43620;SDS011;29213;50.770;7.298;2023-02-01T05:19:00;15.20;;;4.50;;
43620;SDS011;29213;50.770;7.298;2023-02-01T05:21:25;10.95;;;3.95;;
43620;SDS011;29213;50.770;7.298;2023-02-01T05:23:50;15.82;;;4.82;;
43620;SDS011;29213;50.770;7.298;2023-02-01T05:26:34;17.60;;;4.30;;
43620;SDS011;29213;50.770;7.298;2023-02-01T05:29:00;10.90;;;3.60;;
43620;SDS011;29213;50.770;7.298;2023-02-01T05:31:25;15.45;;;4.07;;
43620;SDS011;29213;50.770;7.298;2023-02-01T05:33:51;13.18;;;4.25;;
43620;SDS011;29213;50.770;7.298;2023-02-01T05:36:16;18.13;;;4.15;;
43620;SDS011;29213;50.770;7.298;2023-02-01T05:38:41;17.88;;;5.10;;
43620;SDS011;29213;50.770;7.298;2023-02-01T05:41:07;13.02;;;4.18;;
43620;SDS011;29213;50.770;7.298;2023-02-01T05:43:32;11.95;;;4.03;;
43620;SDS011;29213;50.770;7.298;2023-02-01T05:45:58;13.45;;;3.83;;
43620;SDS011;29213;50.770;7.298;2023-02-01T05:48:23;9.35;;;3.90;;
43620;SDS011;29213;50.770;7.298;2023-02-01T05:50:49;21.10;;;4.35;;
43620;SDS011;29213;50.770;7.298;2023-02-01T05:53:14;15.13;;;4.35;;
43620;SDS011;29213;50.770;7.298;2023-02-01T05:55:41;10.70;;;3.78;;
43620;SDS011;29213;50.770;7.298;2023-02-01T05:58:07;13.32;;;3.70;;
43620;SDS011;29213;50.770;7.298;2023-02-01T06:00:33;14.82;;;3.63;;
43620;SDS011;29213;50.770;7.298;2023-02-01T06:02:58;13.52;;;3.60;;
43620;SDS011;29213;50.770;7.298;2023-02-01T06:05:24;14.65;;;3.47;;
43620;SDS011;29213;50.770;7.298;2023-02-01T06:07:49;14.30;;;3.72;;
43620;SDS011;29213;50.770;7.298;2023-02-01T06:10:18;12.68;;;3.55;;
43620;SDS011;29213;50.770;7.298;2023-02-01T06:12:44;8.88;;;2.88;;
43620;SDS011;29213;50.770;7.298;2023-02-01T06:15:13;10.15;;;3.38;;
43620;SDS011;29213;50.770;7.298;2023-02-01T06:17:44;15.90;;;3.50;;
43620;SDS011;29213;50.770;7.298;2023-02-01T06:20:11;13.15;;;3.63;;
43620;SDS011;29213;50.770;7.298;2023-02-01T06:22:38;12.00;;;3.63;;
43620;SDS011;29213;50.770;7.298;2023-02-01T06:25:04;9.93;;;3.13;;
43620;SDS011;29213;50.770;7.298;2023-02-01T06:27:31;11.73;;;3.42;;
43620;SDS011;29213;50.770;7.298;2023-02-01T06:29:57;17.13;;;4.15;;
43620;SDS011;29213;50.770;7.298;2023-02-01T06:32:22;16.20;;;3.85;;
43620;SDS011;29213;50.770;7.298;2023-02-01T06:34:48;16.00;;;3.50;;
43620;SDS011;29213;50.770;7.298;2023-02-01T06:37:14;10.32;;;2.90;;
43620;SDS011;29213;50.770;7.298;2023-02-01T06:39:39;13.55;;;3.72;;
43620;SDS011;29213;50.770;7.298;2023-02-01T06:42:05;15.43;;;4.75;;
43620;SDS011;29213;50.770;7.298;2023-02-01T06:44:31;11.50;;;3.58;;
43620;SDS011;29213;50.770;7.298;2023-02-01T06:46:56;11.82;;;3.70;;
43620;SDS011;29213;50.770;7.298;2023-02-01T06:49:22;10.50;;;3.40;;
43620;SDS011;29213;50.770;7.298;2023-02-01T06:51:47;16.08;;;3.65;;
43620;SDS011;29213;50.770;7.298;2023-02-01T06:54:13;14.88;;;4.07;;
43620;SDS011;29213;50.770;7.298;2023-02-01T06:56:38;15.70;;;3.42;;
43620;SDS011;29213;50.770;7.298;2023-02-01T06:59:04;16.58;;;3.35;;
43620;SDS011;29213;50.770;7.298;2023-02-01T07:01:30;14.18;;;3.63;;
43620;SDS011;29213;50.770;7.298;2023-02-01T07:03:56;15.18;;;3.20;;
43620;SDS011;29213;50.770;7.298;2023-02-01T07:06:22;12.90;;;3.88;;
43620;SDS011;29213;50.770;7.298;2023-02-01T07:08:48;13.20;;;3.55;;
43620;SDS011;29213;50.770;7.298;2023-02-01T07:11:14;9.77;;;3.60;;
43620;SDS011;29213;50.770;7.298;2023-02-01T07:13:40;12.85;;;4.80;;
43620;SDS011;29213;50.770;7.298;2023-02-01T07:16:08;14.55;;;4.00;;
43620;SDS011;29213;50.770;7.298;2023-02-01T07:18:35;11.60;;;3.45;;
43620;SDS011;29213;50.770;7.298;2023-02-01T07:21:01;10.05;;;3.33;;
43620;SDS011;29213;50.770;7.298;2023-02-01T07:23:26;14.85;;;4.20;;
43620;SDS011;29213;50.770;7.298;2023-02-01T07:25:59;12.18;;;3.85;;
43620;SDS011;29213;50.770;7.298;2023-02-01T07:28:27;14.00;;;3.45;;
43620;SDS011;29213;50.770;7.298;2023-02-01T07:30:54;12.35;;;3.40;;
43620;SDS011;29213;50.770;7.298;2023-02-01T07:33:20;11.88;;;3.42;;
43620;SDS011;29213;50.770;7.298;2023-02-01T07:35:47;8.77;;;2.75;;
43620;SDS011;29213;50.770;7.298;2023-02-01T07:38:13;10.23;;;2.90;;
43620;SDS011;29213;50.770;7.298;2023-02-01T07:40:39;13.35;;;4.55;;
43620;SDS011;29213;50.770;7.298;2023-02-01T07:43:04;11.93;;;3.67;;
43620;SDS011;29213;50.770;7.298;2023-02-01T07:45:31;13.27;;;3.95;;
43620;SDS011;29213;50.770;7.298;2023-02-01T07:47:57;16.73;;;4.40;;
43620;SDS011;29213;50.770;7.298;2023-02-01T07:50:22;12.30;;;3.63;;
43620;SDS011;29213;50.770;7.298;2023-02-01T07:52:47;15.27;;;3.97;;
43620;SDS011;29213;50.770;7.298;2023-02-01T07:55:13;14.07;;;3.80;;
43620;SDS011;29213;50.770;7.298;2023-02-01T07:57:38;12.25;;;3.45;;
43620;SDS011;29213;50.770;7.298;2023-02-01T08:00:04;14.38;;;3.65;;
43620;SDS011;29213;50.770;7.298;2023-02-01T08:02:48;14.70;;;4.32;;
43620;SDS011;29213;50.770;7.298;2023-02-01T08:05:14;12.88;;;3.65;;
43620;SDS011;29213;50.770;7.298;2023-02-01T08:07:39;14.60;;;3.78;;
43620;SDS011;29213;50.770;7.298;2023-02-01T08:10:05;14.00;;;4.07;;
43620;SDS011;29213;50.770;7.298;2023-02-01T08:12:35;16.98;;;4.75;;
43620;SDS011;29213;50.770;7.298;2023-02-01T08:15:01;12.77;;;3.75;;
43620;SDS011;29213;50.770;7.298;2023-02-01T08:17:27;14.85;;;4.25;;
43620;SDS011;29213;50.770;7.298;2023-02-01T08:19:53;14.55;;;3.58;;
43620;SDS011;29213;50.770;7.298;2023-02-01T08:22:19;17.77;;;4.13;;
43620;SDS011;29213;50.770;7.298;2023-02-01T08:24:47;16.38;;;4.03;;
43620;SDS011;29213;50.770;7.298;2023-02-01T08:27:13;12.25;;;3.40;;
43620;SDS011;29213;50.770;7.298;2023-02-01T08:29:38;12.32;;;3.50;;
43620;SDS011;29213;50.770;7.298;2023-02-01T08:32:03;12.02;;;3.90;;
43620;SDS011;29213;50.770;7.298;2023-02-01T08:34:29;15.70;;;4.05;;
43620;SDS011;29213;50.770;7.298;2023-02-01T08:36:54;12.48;;;3.88;;
43620;SDS011;29213;50.770;7.298;2023-02-01T08:39:23;14.73;;;3.72;;
43620;SDS011;29213;50.770;7.298;2023-02-01T08:41:49;13.48;;;3.80;;
43620;SDS011;29213;50.770;7.298;2023-02-01T08:44:35;14.88;;;3.88;;
43620;SDS011;29213;50.770;7.298;2023-02-01T08:47:02;16.98;;;4.50;;
43620;SDS011;29213;50.770;7.298;2023-02-01T08:49:28;17.10;;;4.22;;
43620;SDS011;29213;50.770;7.298;2023-02-01T08:51:54;17.17;;;4.68;;
43620;SDS011;29213;50.770;7.298;2023-02-01T08:54:20;14.57;;;3.53;;
43620;SDS011;29213;50.770;7.298;2023-02-01T08:56:46;12.90;;;3.47;;
43620;SDS011;29213;50.770;7.298;2023-02-01T08:59:11;17.42;;;4.28;;
43620;SDS011;29213;50.770;7.298;2023-02-01T09:01:37;15.80;;;3.67;;
43620;SDS011;29213;50.770;7.298;2023-02-01T09:04:02;12.80;;;3.40;;
43620;SDS011;29213;50.770;7.298;2023-02-01T09:06:27;17.33;;;4.03;;
43620;SDS011;29213;50.770;7.298;2023-02-01T09:08:53;13.32;;;3.83;;
43620;SDS011;29213;50.770;7.298;2023-02-01T09:11:18;13.73;;;3.85;;
43620;SDS011;29213;50.770;7.298;2023-02-01T09:13:46;13.98;;;4.32;;
43620;SDS011;29213;50.770;7.298;2023-02-01T09:16:13;16.40;;;4.18;;
43620;SDS011;29213;50.770;7.298;2023-02-01T09:18:39;13.15;;;3.70;;
43620;SDS011;29213;50.770;7.298;2023-02-01T09:21:05;12.32;;;3.80;;
43620;SDS011;29213;50.770;7.298;2023-02-01T09:23:31;12.68;;;3.50;;
43620;SDS011;29213;50.770;7.298;2023-02-01T09:26:01;10.82;;;3.20;;
43620;SDS011;29213;50.770;7.298;2023-02-01T09:28:28;14.85;;;3.65;;
43620;SDS011;29213;50.770;7.298;2023-02-01T09:30:55;11.38;;;3.70;;
43620;SDS011;29213;50.770;7.298;2023-02-01T09:33:22;14.90;;;3.60;;
43620;SDS011;29213;50.770;7.298;2023-02-01T09:35:49;12.88;;;3.67;;
43620;SDS011;29213;50.770;7.298;2023-02-01T09:38:14;13.48;;;3.58;;
43620;SDS011;29213;50.770;7.298;2023-02-01T09:40:41;17.85;;;4.20;;
43620;SDS011;29213;50.770;7.298;2023-02-01T09:43:17;12.35;;;3.83;;
43620;SDS011;29213;50.770;7.298;2023-02-01T09:45:56;12.80;;;3.50;;
43620;SDS011;29213;50.770;7.298;2023-02-01T09:48:31;14.55;;;3.90;;
43620;SDS011;29213;50.770;7.298;2023-02-01T09:51:02;13.30;;;3.85;;
43620;SDS011;29213;50.770;7.298;2023-02-01T09:53:32;15.00;;;3.65;;
43620;SDS011;29213;50.770;7.298;2023-02-01T09:56:05;10.38;;;3.05;;
43620;SDS011;29213;50.770;7.298;2023-02-01T09:58:36;11.65;;;3.30;;
43620;SDS011;29213;50.770;7.298;2023-02-01T10:01:17;14.98;;;3.47;;
43620;SDS011;29213;50.770;7.298;2023-02-01T10:03:45;10.68;;;2.88;;
43620;SDS011;29213;50.770;7.298;2023-02-01T10:25:56;13.30;;;3.40;;
43620;SDS011;29213;50.770;7.298;2023-02-01T10:28:30;15.23;;;3.80;;
43620;SDS011;29213;50.770;7.298;2023-02-01T10:30:59;13.15;;;3.53;;
43620;SDS011;29213;50.770;7.298;2023-02-01T10:33:30;15.35;;;3.92;;
43620;SDS011;29213;50.770;7.298;2023-02-01T10:36:10;11.48;;;3.13;;
43620;SDS011;29213;50.770;7.298;2023-02-01T10:38:38;11.13;;;3.27;;
43620;SDS011;29213;50.770;7.298;2023-02-01T10:41:10;14.57;;;3.50;;
43620;SDS011;29213;50.770;7.298;2023-02-01T10:43:38;9.98;;;3.05;;
43620;SDS011;29213;50.770;7.298;2023-02-01T10:46:04;10.15;;;2.85;;
43620;SDS011;29213;50.770;7.298;2023-02-01T10:48:31;10.70;;;2.90;;
43620;SDS011;29213;50.770;7.298;2023-02-01T10:51:01;10.73;;;3.22;;
43620;SDS011;29213;50.770;7.298;2023-02-01T10:56:14;13.98;;;3.30;;
43620;SDS011;29213;50.770;7.298;2023-02-01T10:58:47;11.07;;;3.03;;
43620;SDS011;29213;50.770;7.298;2023-02-01T11:01:20;11.68;;;3.35;;
43620;SDS011;29213;50.770;7.298;2023-02-01T11:03:54;14.25;;;3.63;;
43620;SDS011;29213;50.770;7.298;2023-02-01T11:06:28;15.00;;;3.38;;
43620;SDS011;29213;50.770;7.298;2023-02-01T11:11:33;12.77;;;3.75;;
43620;SDS011;29213;50.770;7.298;2023-02-01T11:16:54;16.85;;;3.65;;
43620;SDS011;29213;50.770;7.298;2023-02-01T11:19:22;11.38;;;2.92;;
43620;SDS011;29213;50.770;7.298;2023-02-01T11:21:51;15.98;;;3.53;;
43620;SDS011;29213;50.770;7.298;2023-02-01T11:24:25;13.77;;;3.33;;
43620;SDS011;29213;50.770;7.298;2023-02-01T11:26:57;13.50;;;3.28;;
43620;SDS011;29213;50.770;7.298;2023-02-01T11:29:25;9.20;;;3.03;;
43620;SDS011;29213;50.770;7.298;2023-02-01T11:31:58;12.07;;;3.57;;
43620;SDS011;29213;50.770;7.298;2023-02-01T11:34:26;11.60;;;3.38;;
43620;SDS011;29213;50.770;7.298;2023-02-01T11:37:02;12.10;;;3.30;;
43620;SDS011;29213;50.770;7.298;2023-02-01T11:39:30;11.07;;;3.47;;
43620;SDS011;29213;50.770;7.298;2023-02-01T11:42:05;12.50;;;3.30;;
43620;SDS011;29213;50.770;7.298;2023-02-01T11:44:41;14.75;;;3.05;;
43620;SDS011;29213;50.770;7.298;2023-02-01T11:47:25;12.00;;;3.17;;
43620;SDS011;29213;50.770;7.298;2023-02-01T11:49:56;14.35;;;3.63;;
43620;SDS011;29213;50.770;7.298;2023-02-01T11:55:40;12.52;;;3.20;;
43620;SDS011;29213;50.770;7.298;2023-02-01T11:58:20;10.35;;;3.13;;
43620;SDS011;29213;50.770;7.298;2023-02-01T12:12:07;19.35;;;6.28;;
43620;SDS011;29213;50.770;7.298;2023-02-01T12:20:22;10.80;;;3.30;;
43620;SDS011;29213;50.770;7.298;2023-02-01T12:30:59;11.07;;;3.30;;
43620;SDS011;29213;50.770;7.298;2023-02-01T12:33:49;8.88;;;3.08;;
43620;SDS011;29213;50.770;7.298;2023-02-01T12:36:29;12.43;;;3.40;;
43620;SDS011;29213;50.770;7.298;2023-02-01T12:50:00;9.32;;;2.63;;
43620;SDS011;29213;50.770;7.298;2023-02-01T12:52:39;8.93;;;2.53;;
43620;SDS011;29213;50.770;7.298;2023-02-01T12:58:12;15.32;;;3.35;;
43620;SDS011;29213;50.770;7.298;2023-02-01T13:03:44;11.55;;;3.30;;
43620;SDS011;29213;50.770;7.298;2023-02-01T13:06:37;10.20;;;2.70;;
43620;SDS011;29213;50.770;7.298;2023-02-01T13:12:02;9.02;;;3.00;;
43620;SDS011;29213;50.770;7.298;2023-02-01T13:14:56;9.95;;;3.03;;
43620;SDS011;29213;50.770;7.298;2023-02-01T13:17:29;8.68;;;2.75;;
43620;SDS011;29213;50.770;7.298;2023-02-01T13:25:17;11.10;;;3.08;;
43620;SDS011;29213;50.770;7.298;2023-02-01T13:27:52;9.40;;;2.90;;
43620;SDS011;29213;50.770;7.298;2023-02-01T13:30:25;9.85;;;3.17;;
43620;SDS011;29213;50.770;7.298;2023-02-01T13:42:00;13.52;;;2.95;;
43620;SDS011;29213;50.770;7.298;2023-02-01T13:44:30;11.95;;;2.88;;
43620;SDS011;29213;50.770;7.298;2023-02-01T13:47:03;11.68;;;2.97;;
43620;SDS011;29213;50.770;7.298;2023-02-01T13:49:38;8.30;;;2.50;;
43620;SDS011;29213;50.770;7.298;2023-02-01T13:52:06;11.25;;;2.85;;
43620;SDS011;29213;50.770;7.298;2023-02-01T13:57:47;9.60;;;2.90;;
43620;SDS011;29213;50.770;7.298;2023-02-01T14:00:25;8.00;;;2.50;;
43620;SDS011;29213;50.770;7.298;2023-02-01T14:23:59;13.73;;;3.00;;
43620;SDS011;29213;50.770;7.298;2023-02-01T14:29:01;10.15;;;2.85;;
43620;SDS011;29213;50.770;7.298;2023-02-01T14:31:43;10.35;;;2.42;;
43620;SDS011;29213;50.770;7.298;2023-02-01T14:34:48;10.52;;;2.70;;
43620;SDS011;29213;50.770;7.298;2023-02-01T14:46:03;9.95;;;2.65;;
43620;SDS011;29213;50.770;7.298;2023-02-01T14:55:37;9.88;;;2.58;;
43620;SDS011;29213;50.770;7.298;2023-02-01T14:58:10;10.63;;;2.88;;
43620;SDS011;29213;50.770;7.298;2023-02-01T15:01:03;8.45;;;2.67;;
43620;SDS011;29213;50.770;7.298;2023-02-01T15:03:42;10.10;;;2.95;;
43620;SDS011;29213;50.770;7.298;2023-02-01T15:08:57;11.27;;;2.70;;
43620;SDS011;29213;50.770;7.298;2023-02-01T15:11:32;9.48;;;2.47;;
43620;SDS011;29213;50.770;7.298;2023-02-01T15:14:19;10.18;;;3.03;;
43620;SDS011;29213;50.770;7.298;2023-02-01T15:16:45;9.90;;;2.72;;
43620;SDS011;29213;50.770;7.298;2023-02-01T15:19:20;10.82;;;3.20;;
43620;SDS011;29213;50.770;7.298;2023-02-01T15:21:49;9.03;;;2.90;;
43620;SDS011;29213;50.770;7.298;2023-02-01T15:24:29;10.20;;;3.60;;
43620;SDS011;29213;50.770;7.298;2023-02-01T15:27:01;13.10;;;6.28;;
43620;SDS011;29213;50.770;7.298;2023-02-01T15:29:29;9.05;;;2.88;;
43620;SDS011;29213;50.770;7.298;2023-02-01T15:31:57;8.02;;;2.72;;
43620;SDS011;29213;50.770;7.298;2023-02-01T15:34:33;9.57;;;3.03;;
43620;SDS011;29213;50.770;7.298;2023-02-01T15:37:12;9.52;;;3.08;;
43620;SDS011;29213;50.770;7.298;2023-02-01T15:42:40;9.00;;;2.92;;
43620;SDS011;29213;50.770;7.298;2023-02-01T15:45:19;10.15;;;2.90;;
43620;SDS011;29213;50.770;7.298;2023-02-01T15:47:46;8.55;;;2.58;;
43620;SDS011;29213;50.770;7.298;2023-02-01T15:50:18;8.88;;;2.55;;
43620;SDS011;29213;50.770;7.298;2023-02-01T15:52:49;11.05;;;2.75;;
43620;SDS011;29213;50.770;7.298;2023-02-01T15:55:39;8.40;;;2.70;;
43620;SDS011;29213;50.770;7.298;2023-02-01T15:58:07;6.32;;;2.53;;
43620;SDS011;29213;50.770;7.298;2023-02-01T16:00:43;12.25;;;6.35;;
43620;SDS011;29213;50.770;7.298;2023-02-01T16:03:25;15.65;;;6.43;;
43620;SDS011;29213;50.770;7.298;2023-02-01T16:06:03;7.95;;;2.88;;
43620;SDS011;29213;50.770;7.298;2023-02-01T16:11:26;9.40;;;2.28;;
43620;SDS011;29213;50.770;7.298;2023-02-01T16:13:56;11.80;;;2.65;;
43620;SDS011;29213;50.770;7.298;2023-02-01T16:16:25;6.75;;;2.25;;
43620;SDS011;29213;50.770;7.298;2023-02-01T16:18:52;7.45;;;2.17;;
43620;SDS011;29213;50.770;7.298;2023-02-01T16:21:19;8.82;;;2.50;;
43620;SDS011;29213;50.770;7.298;2023-02-01T16:23:47;8.30;;;2.88;;
43620;SDS011;29213;50.770;7.298;2023-02-01T16:26:15;9.82;;;2.75;;
43620;SDS011;29213;50.770;7.298;2023-02-01T16:28:40;8.40;;;2.60;;
43620;SDS011;29213;50.770;7.298;2023-02-01T16:31:08;9.75;;;2.67;;
43620;SDS011;29213;50.770;7.298;2023-02-01T16:33:44;8.27;;;2.72;;
43620;SDS011;29213;50.770;7.298;2023-02-01T16:36:10;11.20;;;3.50;;
43620;SDS011;29213;50.770;7.298;2023-02-01T16:38:36;10.02;;;3.35;;
43620;SDS011;29213;50.770;7.298;2023-02-01T16:41:02;10.40;;;2.83;;
43620;SDS011;29213;50.770;7.298;2023-02-01T16:43:30;8.57;;;2.70;;
43620;SDS011;29213;50.770;7.298;2023-02-01T16:45:58;8.52;;;2.60;;
43620;SDS011;29213;50.770;7.298;2023-02-01T16:48:27;11.40;;;2.85;;
43620;SDS011;29213;50.770;7.298;2023-02-01T16:50:59;9.75;;;2.72;;
43620;SDS011;29213;50.770;7.298;2023-02-01T16:53:28;10.15;;;2.53;;
43620;SDS011;29213;50.770;7.298;2023-02-01T16:55:55;10.60;;;2.50;;
43620;SDS011;29213;50.770;7.298;2023-02-01T16:58:22;10.52;;;2.90;;
43620;SDS011;29213;50.770;7.298;2023-02-01T17:00:49;13.98;;;2.92;;
43620;SDS011;29213;50.770;7.298;2023-02-01T17:03:16;8.43;;;2.40;;
43620;SDS011;29213;50.770;7.298;2023-02-01T17:05:45;9.38;;;2.92;;
43620;SDS011;29213;50.770;7.298;2023-02-01T17:08:17;7.72;;;2.38;;
43620;SDS011;29213;50.770;7.298;2023-02-01T17:10:47;9.63;;;2.97;;
43620;SDS011;29213;50.770;7.298;2023-02-01T17:13:13;9.55;;;2.53;;
43620;SDS011;29213;50.770;7.298;2023-02-01T17:15:40;10.02;;;2.53;;
43620;SDS011;29213;50.770;7.298;2023-02-01T17:18:29;8.60;;;2.53;;
43620;SDS011;29213;50.770;7.298;2023-02-01T17:20:57;9.52;;;2.60;;
43620;SDS011;29213;50.770;7.298;2023-02-01T17:23:23;6.88;;;2.50;;
43620;SDS011;29213;50.770;7.298;2023-02-01T17:25:49;8.50;;;2.90;;
43620;SDS011;29213;50.770;7.298;2023-02-01T17:28:14;6.55;;;2.50;;
43620;SDS011;29213;50.770;7.298;2023-02-01T17:30:40;10.20;;;2.85;;
43620;SDS011;29213;50.770;7.298;2023-02-01T17:35:53;9.10;;;2.72;;
43620;SDS011;29213;50.770;7.298;2023-02-01T17:38:20;6.63;;;2.30;;
43620;SDS011;29213;50.770;7.298;2023-02-01T17:40:45;9.00;;;2.70;;
43620;SDS011;29213;50.770;7.298;2023-02-01T17:43:14;8.98;;;2.60;;
43620;SDS011;29213;50.770;7.298;2023-02-01T17:45:44;10.23;;;2.60;;
43620;SDS011;29213;50.770;7.298;2023-02-01T17:48:16;10.85;;;2.95;;
43620;SDS011;29213;50.770;7.298;2023-02-01T17:50:43;8.63;;;2.90;;